Terminal Aerodrome Forecast
Issued by NWS Sterling, VA

Home | Current Version | Previous Version | Text Only | Print | Product List | Glossary On
Versions: 1 2 3 4 5 6 7 8 9 10 11 12 13 14 15 16 17 18 19 20 21 22 23 24 25 26 27
000
FTUS41 KLWX 221120
TAFIAD
TAF
KIAD 221120Z 2212/2318 03005KT 2SM -DZ BR BKN002 OVC008
     FM221600 05005KT 6SM -DZ BR BKN008 OVC015
     FM222100 05006KT 5SM -RADZ BKN008 OVC015
     FM230000 08010G17KT 5SM -RA BKN008 OVC015
     FM230700 06015G25KT 5SM -RA BKN008 OVC015
     FM231000 06018G32KT 5SM -RA BKN008 OVC015
     FM231700 07012G20KT 6SM -RA BKN008 OVC015=

USA.gov is the U.S. government's official web portal to all federal, state and local government web resources and services.